Time;durP1;ratioP1;P1;durP2;ratioP2;P2;SDS_P1;SDS_P2;PMS_P1;PMS_P2;Temp;Humidity;BMP_temperature;BMP_pressure;BME280_temperature;BME280_humidity;BME280_pressure;Samples;Min_cycle;Max_cycle;Signal;HPM_P1;HPM_P2
2023/05/24 00:00:11;;;;;;;35.88;16.77;;;5.50;99.90;;;;;;4962083;28;20037;-78
2023/05/24 00:02:41;;;;;;;37.05;16.52;;;5.50;99.90;;;;;;4955958;28;20076;-78
2023/05/24 00:05:10;;;;;;;31.90;15.77;;;5.60;99.90;;;;;;4964163;28;20034;-78
2023/05/24 00:07:36;;;;;;;31.30;15.25;;;5.60;99.90;;;;;;4960933;28;20049;-78
2023/05/24 00:10:05;;;;;;;31.52;14.98;;;5.70;99.90;;;;;;4958428;28;20058;-78
2023/05/24 00:12:32;;;;;;;27.88;13.77;;;5.70;99.90;;;;;;4957771;28;20054;-78
2023/05/24 00:14:58;;;;;;;31.88;14.57;;;5.70;99.90;;;;;;4961655;28;20073;-78
2023/05/24 00:17:24;;;;;;;32.67;14.27;;;5.70;99.90;;;;;;4968616;28;20125;-79
2023/05/24 00:19:51;;;;;;;28.38;13.48;;;5.70;99.90;;;;;;4992120;28;20189;-78
2023/05/24 00:22:19;;;;;;;29.27;13.85;;;5.60;99.90;;;;;;4966138;28;20066;-80
2023/05/24 00:24:46;;;;;;;32.05;13.68;;;5.70;99.90;;;;;;4943626;28;20046;-78
2023/05/24 00:27:13;;;;;;;34.83;15.07;;;5.70;99.90;;;;;;4970094;28;20130;-78
2023/05/24 00:29:39;;;;;;;26.90;14.57;;;5.60;99.90;;;;;;4957747;28;20038;-80
2023/05/24 00:32:06;;;;;;;29.70;13.52;;;5.80;99.90;;;;;;4959593;28;20405;-79
2023/05/24 00:34:32;;;;;;;38.53;15.90;;;5.80;99.90;;;;;;4960452;28;20081;-80
2023/05/24 00:36:59;;;;;;;30.50;14.55;;;5.80;99.90;;;;;;4952173;28;20070;-78
2023/05/24 00:39:25;;;;;;;33.80;15.25;;;5.80;99.90;;;;;;4974553;28;20488;-78
2023/05/24 00:41:51;;;;;;;30.45;17.05;;;5.90;99.90;;;;;;4960614;28;20555;-79
2023/05/24 00:44:17;;;;;;;31.52;15.85;;;5.90;99.90;;;;;;4961483;28;20126;-78
2023/05/24 00:46:44;;;;;;;34.42;17.63;;;6.00;99.90;;;;;;4953627;28;20118;-78
2023/05/24 00:49:09;;;;;;;30.50;15.07;;;6.10;99.90;;;;;;4958365;28;20039;-79
2023/05/24 00:51:37;;;;;;;35.17;16.63;;;6.30;99.90;;;;;;4962568;28;20054;-78
2023/05/24 00:54:03;;;;;;;38.40;15.88;;;6.30;99.90;;;;;;4966417;28;20117;-78
2023/05/24 00:56:30;;;;;;;35.78;15.45;;;6.30;99.90;;;;;;4993197;28;20540;-78
2023/05/24 00:58:56;;;;;;;33.08;13.80;;;6.40;99.90;;;;;;4977686;28;20104;-80
2023/05/24 01:01:29;;;;;;;26.77;13.32;;;6.40;99.90;;;;;;4975917;28;20035;-79
2023/05/24 01:03:56;;;;;;;31.77;15.00;;;6.40;99.90;;;;;;4975175;28;20093;-78
2023/05/24 01:06:23;;;;;;;29.40;13.88;;;6.40;99.90;;;;;;4991083;28;20042;-78
2023/05/24 01:09:03;;;;;;;38.38;15.32;;;6.40;99.90;;;;;;4995290;28;20045;-78
2023/05/24 01:11:43;;;;;;;33.15;14.13;;;6.30;99.90;;;;;;4992878;28;20120;-78
2023/05/24 01:14:20;;;;;;;29.27;14.00;;;6.30;99.90;;;;;;4961842;28;20418;-78
2023/05/24 01:17:01;;;;;;;29.55;14.00;;;6.30;99.90;;;;;;4997049;28;20103;-78
2023/05/24 01:19:55;;;;;;;30.00;15.32;;;6.30;99.90;;;;;;4975860;28;20181;-79
2023/05/24 01:22:51;;;;;;;30.92;14.50;;;6.30;99.90;;;;;;5007001;28;20054;-78
2023/05/24 01:25:48;;;;;;;32.38;14.60;;;6.30;99.90;;;;;;4993369;28;20041;-78
2023/05/24 01:28:17;;;;;;;41.13;17.00;;;6.40;99.90;;;;;;4975736;28;20046;-78
2023/05/24 01:30:43;;;;;;;37.25;16.20;;;6.60;99.90;;;;;;4977177;28;20543;-78
2023/05/24 01:33:09;;;;;;;33.05;16.25;;;6.60;99.90;;;;;;4968885;28;20082;-78
2023/05/24 01:35:39;;;;;;;28.13;14.98;;;6.60;99.90;;;;;;4959374;28;20042;-78
2023/05/24 01:38:10;;;;;;;35.53;13.85;;;6.70;99.90;;;;;;4968007;28;20045;-78
2023/05/24 01:40:37;;;;;;;33.95;15.38;;;6.70;99.90;;;;;;4977780;28;20044;-78
2023/05/24 01:43:15;;;;;;;38.13;15.43;;;6.70;99.90;;;;;;4969784;28;20173;-79
2023/05/24 01:46:08;;;;;;;37.75;15.60;;;6.90;99.90;;;;;;4972420;28;20038;-80
2023/05/24 01:49:13;;;;;;;34.55;15.77;;;6.90;99.90;;;;;;4971722;28;20050;-79
2023/05/24 01:51:48;;;;;;;40.92;17.30;;;7.00;99.90;;;;;;4985372;28;20084;-81
2023/05/24 01:54:19;;;;;;;38.60;16.63;;;7.00;99.90;;;;;;4993357;28;20077;-78
2023/05/24 01:56:48;;;;;;;33.80;14.38;;;7.10;99.90;;;;;;4989766;28;20046;-80
2023/05/24 01:59:14;;;;;;;35.83;16.08;;;7.10;99.90;;;;;;4978302;28;20138;-79
2023/05/24 02:01:40;;;;;;;30.58;13.43;;;7.10;99.90;;;;;;4980114;28;20038;-79
2023/05/24 02:04:06;;;;;;;29.98;12.93;;;7.00;99.90;;;;;;4979594;28;20384;-78
2023/05/24 02:06:32;;;;;;;30.17;13.35;;;7.00;99.90;;;;;;4969299;28;20041;-79
2023/05/24 02:08:58;;;;;;;31.30;13.32;;;7.00;99.90;;;;;;4969828;28;20041;-78
2023/05/24 02:11:24;;;;;;;41.35;15.32;;;6.90;99.90;;;;;;4964776;28;20037;-79
2023/05/24 02:13:53;;;;;;;41.22;14.77;;;6.80;99.90;;;;;;4979324;28;20097;-78
2023/05/24 02:16:23;;;;;;;29.98;13.02;;;6.80;99.90;;;;;;4962311;28;20038;-79
2023/05/24 02:18:49;;;;;;;35.53;14.68;;;6.70;99.90;;;;;;4976133;28;20042;-78
2023/05/24 02:21:15;;;;;;;33.58;14.32;;;6.70;99.90;;;;;;4991115;28;20455;-79
2023/05/24 02:23:41;;;;;;;31.85;13.20;;;6.60;99.90;;;;;;4994558;28;20045;-79
2023/05/24 02:26:10;;;;;;;33.00;14.30;;;6.50;99.90;;;;;;4990705;28;20030;-79
2023/05/24 02:28:36;;;;;;;35.42;13.95;;;6.50;99.90;;;;;;4974343;28;20046;-78
2023/05/24 02:31:02;;;;;;;31.80;13.63;;;6.50;99.90;;;;;;4987910;28;20060;-80
2023/05/24 02:33:28;;;;;;;35.72;15.90;;;6.50;99.90;;;;;;4977848;28;20048;-80
2023/05/24 02:35:55;;;;;;;36.78;14.35;;;6.40;99.90;;;;;;4977586;28;20452;-79
2023/05/24 02:38:21;;;;;;;38.25;14.60;;;6.40;99.90;;;;;;4975366;28;20041;-79
2023/05/24 02:40:47;;;;;;;35.72;15.50;;;6.30;99.90;;;;;;4977350;28;20052;-78
2023/05/24 02:43:15;;;;;;;33.75;14.80;;;6.20;99.90;;;;;;4969870;28;20125;-79
2023/05/24 02:45:41;;;;;;;32.67;14.68;;;6.20;99.90;;;;;;4977994;28;20167;-79
2023/05/24 02:48:07;;;;;;;41.85;16.08;;;6.20;99.90;;;;;;4974234;28;20042;-78
2023/05/24 02:50:33;;;;;;;33.97;15.38;;;6.20;99.90;;;;;;4970590;28;20484;-79
2023/05/24 02:52:59;;;;;;;48.70;17.38;;;6.10;99.90;;;;;;4978000;28;20092;-79
2023/05/24 02:55:25;;;;;;;54.40;19.42;;;6.10;99.90;;;;;;4995155;28;20408;-79
2023/05/24 02:57:52;;;;;;;39.05;15.93;;;6.10;99.90;;;;;;4985844;28;20038;-79
2023/05/24 03:00:18;;;;;;;41.22;15.63;;;6.10;99.90;;;;;;4992460;28;20037;-79
2023/05/24 03:02:46;;;;;;;35.95;14.73;;;6.10;99.90;;;;;;4993493;28;20049;-79
2023/05/24 03:05:12;;;;;;;37.00;15.80;;;6.10;99.90;;;;;;4977770;28;20057;-79
2023/05/24 03:07:41;;;;;;;33.53;14.40;;;6.10;99.90;;;;;;4991076;28;20041;-79
2023/05/24 03:10:07;;;;;;;41.03;15.93;;;6.00;99.90;;;;;;4985967;28;20057;-79
2023/05/24 03:12:33;;;;;;;36.65;16.58;;;6.00;99.90;;;;;;4969695;28;20139;-78
2023/05/24 03:14:59;;;;;;;36.65;16.02;;;6.00;99.90;;;;;;4978912;28;20500;-79
2023/05/24 03:17:25;;;;;;;50.03;18.88;;;6.00;99.90;;;;;;4991989;28;20390;-79
2023/05/24 03:19:51;;;;;;;41.78;17.13;;;6.00;99.90;;;;;;4989450;28;20052;-78
2023/05/24 03:22:18;;;;;;;34.10;15.60;;;6.00;99.90;;;;;;5000442;28;20045;-79
2023/05/24 03:24:45;;;;;;;40.83;17.63;;;5.90;99.90;;;;;;4977497;28;20042;-79
2023/05/24 03:27:11;;;;;;;35.60;16.58;;;5.90;99.90;;;;;;4974345;28;20038;-79
2023/05/24 03:29:43;;;;;;;39.43;16.70;;;5.90;99.90;;;;;;5003530;28;20082;-79
2023/05/24 03:32:08;;;;;;;38.90;17.50;;;5.90;99.90;;;;;;5019487;28;20081;-79
2023/05/24 03:34:34;;;;;;;34.35;15.77;;;5.90;99.90;;;;;;4974520;28;20048;-79
2023/05/24 03:37:00;;;;;;;43.05;17.70;;;5.90;99.90;;;;;;4979512;28;20037;-79
2023/05/24 03:39:26;;;;;;;31.30;14.68;;;5.90;99.90;;;;;;4982374;28;20041;-80
2023/05/24 03:41:52;;;;;;;38.00;15.35;;;5.90;99.90;;;;;;4987986;28;20048;-80
2023/05/24 03:44:21;;;;;;;40.30;16.02;;;5.80;99.90;;;;;;4993422;28;20416;-78
2023/05/24 03:46:47;;;;;;;37.70;16.50;;;5.80;99.90;;;;;;4982364;28;20041;-78
2023/05/24 03:49:14;;;;;;;51.50;18.08;;;5.90;99.90;;;;;;4979160;28;20512;-78
2023/05/24 03:51:40;;;;;;;29.90;14.55;;;5.90;99.90;;;;;;4985600;28;20554;-78
2023/05/24 03:54:08;;;;;;;38.00;16.55;;;5.90;99.90;;;;;;5000472;28;20049;-78
2023/05/24 03:56:34;;;;;;;27.58;14.00;;;5.90;99.90;;;;;;4996563;28;20041;-78
2023/05/24 03:59:02;;;;;;;34.50;15.25;;;5.90;99.90;;;;;;4997074;28;20402;-79
2023/05/24 04:01:31;;;;;;;39.10;15.85;;;5.90;99.90;;;;;;4986586;28;20053;-78
2023/05/24 04:03:58;;;;;;;29.85;14.80;;;5.80;99.90;;;;;;4977772;28;20074;-79
2023/05/24 04:06:27;;;;;;;32.85;15.07;;;5.80;99.90;;;;;;4977412;28;20042;-78
2023/05/24 04:08:55;;;;;;;31.50;14.85;;;5.90;99.90;;;;;;4998988;28;20543;-79
2023/05/24 04:11:22;;;;;;;38.33;16.92;;;5.80;99.90;;;;;;4996687;28;20048;-78
2023/05/24 04:13:50;;;;;;;37.90;16.98;;;5.80;99.90;;;;;;4980471;28;20419;-78
2023/05/24 04:16:16;;;;;;;36.55;17.50;;;5.90;99.90;;;;;;4980374;28;20100;-78
2023/05/24 04:18:44;;;;;;;40.90;18.08;;;5.90;99.90;;;;;;4993266;28;20042;-79
2023/05/24 04:21:10;;;;;;;37.03;17.65;;;6.00;99.90;;;;;;4983266;28;20034;-79
2023/05/24 04:23:36;;;;;;;39.85;16.60;;;6.00;99.90;;;;;;4996575;28;20108;-78
2023/05/24 04:26:02;;;;;;;32.95;16.33;;;6.10;99.90;;;;;;4996206;28;20045;-79
2023/05/24 04:28:28;;;;;;;32.35;16.63;;;6.10;99.90;;;;;;4995688;28;20038;-78
2023/05/24 04:30:57;;;;;;;32.75;14.80;;;6.20;99.90;;;;;;4981208;28;20412;-78
2023/05/24 04:33:23;;;;;;;25.73;14.73;;;6.20;99.90;;;;;;4976811;28;20074;-79
2023/05/24 04:35:49;;;;;;;29.33;14.20;;;6.30;99.90;;;;;;4960378;28;20074;-78
2023/05/24 04:38:18;;;;;;;32.42;16.25;;;6.30;99.90;;;;;;4970996;28;20473;-79
2023/05/24 04:40:44;;;;;;;34.63;15.60;;;6.50;99.90;;;;;;4996989;28;20037;-78
2023/05/24 04:43:11;;;;;;;35.00;14.98;;;6.70;99.90;;;;;;5015384;28;20044;-79
2023/05/24 04:45:40;;;;;;;27.60;13.70;;;6.90;99.90;;;;;;4999268;28;20044;-79
2023/05/24 04:48:06;;;;;;;26.65;12.75;;;7.20;99.90;;;;;;5009998;28;20088;-80
2023/05/24 04:50:34;;;;;;;30.45;13.40;;;7.30;99.90;;;;;;4976156;28;20139;-78
2023/05/24 04:53:00;;;;;;;29.20;11.93;;;7.30;99.90;;;;;;4992666;28;20168;-79
2023/05/24 04:55:26;;;;;;;28.70;12.98;;;7.30;99.90;;;;;;4952628;28;20125;-79
2023/05/24 04:57:54;;;;;;;29.17;11.95;;;7.30;99.90;;;;;;4958108;28;20043;-79
2023/05/24 05:00:20;;;;;;;30.63;12.48;;;7.30;99.90;;;;;;4967172;28;20416;-78
2023/05/24 05:02:46;;;;;;;24.10;10.98;;;7.30;99.90;;;;;;4970764;28;20047;-79
2023/05/24 05:05:13;;;;;;;24.98;12.20;;;7.30;99.90;;;;;;4975399;28;20386;-78
2023/05/24 05:07:39;;;;;;;26.25;11.05;;;7.30;99.90;;;;;;4970468;28;20038;-79
2023/05/24 05:10:06;;;;;;;32.50;12.63;;;7.30;99.90;;;;;;4941359;28;20101;-79
2023/05/24 05:12:34;;;;;;;25.42;12.77;;;7.20;99.90;;;;;;4960349;28;20413;-78
2023/05/24 05:15:03;;;;;;;28.58;12.32;;;7.20;99.90;;;;;;4973876;28;20053;-79
2023/05/24 05:17:29;;;;;;;37.13;15.20;;;7.20;99.90;;;;;;4947880;28;20446;-79
2023/05/24 05:19:55;;;;;;;33.03;13.60;;;7.30;99.90;;;;;;4964882;28;20070;-79
2023/05/24 05:22:21;;;;;;;26.85;12.88;;;7.30;99.90;;;;;;4975578;28;20065;-79
2023/05/24 05:24:47;;;;;;;35.38;15.35;;;7.40;99.90;;;;;;4958729;28;20042;-80
2023/05/24 05:27:13;;;;;;;35.22;15.25;;;7.40;99.90;;;;;;4957672;28;20117;-79
2023/05/24 05:29:40;;;;;;;31.75;14.60;;;7.50;99.90;;;;;;4975823;28;20129;-79
2023/05/24 05:32:06;;;;;;;34.30;16.52;;;7.60;99.90;;;;;;4983975;28;20057;-79
2023/05/24 05:34:32;;;;;;;36.40;16.58;;;7.70;99.90;;;;;;4972782;28;20564;-79
2023/05/24 05:36:57;;;;;;;32.22;14.75;;;7.80;99.90;;;;;;4967474;28;20051;-79
2023/05/24 05:39:23;;;;;;;36.65;15.48;;;7.90;99.90;;;;;;4955864;28;20038;-80
2023/05/24 05:41:49;;;;;;;31.50;15.82;;;8.00;99.90;;;;;;4952781;28;20110;-78
2023/05/24 05:44:15;;;;;;;25.88;12.70;;;8.10;99.90;;;;;;4966086;28;20071;-78
2023/05/24 05:46:44;;;;;;;31.15;14.07;;;8.20;99.90;;;;;;4967840;28;20127;-79
2023/05/24 05:49:11;;;;;;;37.97;16.13;;;8.30;99.90;;;;;;4973249;28;20062;-79
2023/05/24 05:51:37;;;;;;;34.05;14.82;;;8.30;99.90;;;;;;4959066;28;20121;-79
2023/05/24 05:54:04;;;;;;;28.65;12.77;;;8.40;99.90;;;;;;4981585;28;20052;-79
2023/05/24 05:56:30;;;;;;;34.97;14.38;;;8.60;99.90;;;;;;4973140;28;20042;-79
2023/05/24 05:58:56;;;;;;;26.35;11.68;;;8.70;99.90;;;;;;4974932;28;20145;-79
2023/05/24 06:01:22;;;;;;;33.72;13.55;;;8.80;99.90;;;;;;4973583;28;20149;-80
2023/05/24 06:03:49;;;;;;;32.05;11.70;;;8.90;99.90;;;;;;4986679;28;20042;-80
2023/05/24 06:06:15;;;;;;;31.25;11.60;;;9.10;99.90;;;;;;4977243;28;20112;-79
2023/05/24 06:08:41;;;;;;;31.48;11.65;;;9.20;99.90;;;;;;4994434;28;20169;-79
2023/05/24 06:11:07;;;;;;;23.17;9.13;;;9.30;99.90;;;;;;4994687;28;20045;-79
2023/05/24 06:13:33;;;;;;;25.77;10.60;;;9.50;99.90;;;;;;4978092;28;20049;-79
2023/05/24 06:16:02;;;;;;;28.42;10.20;;;9.50;99.90;;;;;;4989182;28;20116;-78
2023/05/24 06:18:29;;;;;;;25.58;9.93;;;9.60;99.90;;;;;;4986173;28;20350;-78
2023/05/24 06:20:55;;;;;;;28.73;9.98;;;9.70;99.90;;;;;;4974302;28;20064;-79
2023/05/24 06:23:22;;;;;;;29.20;9.70;;;9.80;99.90;;;;;;4993812;28;20044;-80
2023/05/24 06:25:48;;;;;;;23.95;8.13;;;9.80;99.90;;;;;;4974360;28;20172;-79
2023/05/24 06:28:14;;;;;;;23.75;8.65;;;9.90;99.90;;;;;;4967915;28;20041;-79
2023/05/24 06:30:40;;;;;;;28.67;10.13;;;10.00;99.90;;;;;;4988114;28;20081;-78
2023/05/24 06:33:06;;;;;;;23.80;8.50;;;10.10;99.90;;;;;;4961598;28;20519;-79
2023/05/24 06:35:32;;;;;;;24.98;8.40;;;10.20;99.90;;;;;;4974015;28;20037;-78
2023/05/24 06:37:58;;;;;;;27.88;8.73;;;10.30;99.90;;;;;;4977360;28;20038;-78
2023/05/24 06:40:24;;;;;;;22.13;8.50;;;10.30;99.90;;;;;;4970050;28;20045;-78
2023/05/24 06:42:50;;;;;;;23.42;8.98;;;10.40;99.90;;;;;;4968353;28;20038;-79
2023/05/24 06:45:31;;;;;;;28.77;9.13;;;10.40;99.90;;;;;;4977274;28;20053;-80
2023/05/24 06:48:00;;;;;;;27.58;8.40;;;10.50;99.90;;;;;;4960518;28;20043;-79
2023/05/24 06:50:27;;;;;;;23.70;8.10;;;10.60;99.90;;;;;;4975004;28;20125;-79
2023/05/24 06:52:53;;;;;;;23.27;8.77;;;10.60;99.90;;;;;;4995053;28;20065;-79
2023/05/24 06:55:36;;;;;;;25.00;9.25;;;10.70;99.90;;;;;;5000157;28;20642;-79
2023/05/24 06:58:13;;;;;;;27.00;9.65;;;10.70;99.90;;;;;;4977067;28;20188;-79
2023/05/24 07:00:44;;;;;;;20.40;8.15;;;10.90;99.90;;;;;;4977903;28;20034;-80
2023/05/24 07:03:39;;;;;;;28.02;9.02;;;11.00;99.90;;;;;;4995041;28;20033;-79
2023/05/24 07:06:08;;;;;;;21.80;8.20;;;11.20;99.90;;;;;;4990041;28;20053;-79
2023/05/24 07:08:41;;;;;;;21.15;7.45;;;11.40;99.90;;;;;;4981636;28;20061;-80
2023/05/24 07:11:12;;;;;;;21.80;7.75;;;11.70;99.90;;;;;;4991537;28;20037;-79
2023/05/24 07:13:43;;;;;;;20.45;7.47;;;12.00;99.90;;;;;;4979042;28;20042;-79
2023/05/24 07:16:25;;;;;;;23.95;8.23;;;12.30;99.90;;;;;;4995397;28;20488;-78
2023/05/24 07:19:44;;;;;;;21.63;7.30;;;12.70;99.90;;;;;;4980094;28;20073;-77
2023/05/24 07:23:05;;;;;;;21.00;7.28;;;12.90;99.90;;;;;;5007639;28;20053;-77
2023/05/24 07:29:20;;;;;;;19.10;6.70;;;13.30;99.90;;;;;;4989024;28;20053;-78
2023/05/24 07:36:39;;;;;;;19.73;6.90;;;13.80;99.90;;;;;;5138254;23;20503;-77
2023/05/24 07:39:21;;;;;;;21.85;6.45;;;14.00;99.90;;;;;;4993891;28;20373;-77
2023/05/24 07:46:09;;;;;;;22.00;6.72;;;14.40;99.90;;;;;;4969256;28;20534;-78
2023/05/24 07:50:15;;;;;;;;;;;;;;;;;;;;;
2023/05/24 07:53:28;;;;;;;;;;;;;;;;;;;;;
2023/05/24 07:56:49;;;;;;;14.90;5.53;;;14.70;99.90;;;;;;4933719;29;19918;-78
2023/05/24 08:00:09;;;;;;;14.20;5.50;;;15.10;99.90;;;;;;4934547;28;20405;-78
2023/05/24 08:02:49;;;;;;;15.60;5.75;;;15.30;99.90;;;;;;4997960;28;20594;-77
2023/05/24 08:05:17;;;;;;;15.18;5.53;;;15.60;99.90;;;;;;5015387;28;20048;-78
2023/05/24 08:08:21;;;;;;;36.70;6.85;;;15.60;99.90;;;;;;5025564;28;20142;-77
2023/05/24 08:11:24;;;;;;;226.48;19.00;;;15.60;99.90;;;;;;5023191;28;20511;-78
2023/05/24 08:15:13;;;;;;;12.13;5.00;;;15.50;99.90;;;;;;5004313;28;20042;-79
2023/05/24 08:17:30;;;;;;;12.73;4.25;;;15.40;99.90;;;;;;5014283;28;20287;-77
2023/05/24 08:20:08;;;;;;;13.85;5.05;;;15.40;99.90;;;;;;5006994;28;20514;-78
2023/05/24 08:22:42;;;;;;;14.30;4.82;;;15.40;99.90;;;;;;5012863;28;20484;-78
2023/05/24 08:25:15;;;;;;;18.10;5.60;;;15.40;99.90;;;;;;5008785;28;20544;-79
2023/05/24 08:27:44;;;;;;;12.18;4.70;;;15.40;99.90;;;;;;5018114;28;20064;-78
2023/05/24 08:30:19;;;;;;;12.98;4.95;;;15.40;99.90;;;;;;4998295;28;20500;-78
2023/05/24 08:32:48;;;;;;;13.20;4.80;;;15.50;99.90;;;;;;5000250;28;20506;-78
2023/05/24 08:35:19;;;;;;;14.70;5.45;;;15.60;99.90;;;;;;5015160;28;20091;-78
2023/05/24 08:37:48;;;;;;;12.23;5.25;;;15.60;99.90;;;;;;5018834;28;20050;-78
2023/05/24 08:40:26;;;;;;;14.45;4.90;;;16.30;99.90;;;;;;5001455;28;20045;-79
2023/05/24 08:42:54;;;;;;;13.18;4.28;;;17.40;99.90;;;;;;4998644;28;20041;-78
2023/05/24 08:45:28;;;;;;;14.13;4.75;;;17.90;99.90;;;;;;5001468;28;20054;-79
2023/05/24 08:48:02;;;;;;;12.00;4.80;;;17.90;99.90;;;;;;4999004;28;20037;-79
2023/05/24 08:50:34;;;;;;;10.55;3.95;;;17.90;99.90;;;;;;5000543;28;20091;-79
2023/05/24 08:53:08;;;;;;;10.60;4.07;;;17.80;99.90;;;;;;5000936;28;20037;-80
2023/05/24 08:55:38;;;;;;;11.15;3.90;;;17.80;97.60;;;;;;5025894;28;20029;-80
2023/05/24 08:58:07;;;;;;;9.95;4.00;;;17.90;91.10;;;;;;5004922;28;20045;-80
2023/05/24 09:00:38;;;;;;;10.80;3.92;;;18.10;80.30;;;;;;5017840;28;20037;-80
2023/05/24 09:03:05;;;;;;;10.70;3.65;;;18.40;79.20;;;;;;4996332;28;20045;-79
2023/05/24 09:08:23;;;;;;;9.07;3.25;;;19.60;82.30;;;;;;5007689;28;20037;-78
2023/05/24 09:11:07;;;;;;;7.55;3.55;;;20.30;67.30;;;;;;5008757;28;20153;-79
2023/05/24 09:16:31;;;;;;;9.30;3.70;;;20.60;71.40;;;;;;5013362;28;20060;-78
2023/05/24 09:19:29;;;;;;;11.27;3.45;;;20.00;70.10;;;;;;5007229;28;20042;-78
2023/05/24 09:22:13;;;;;;;10.70;3.72;;;19.50;71.60;;;;;;4992657;28;20108;-80
2023/05/24 09:25:38;;;;;;;8.80;4.05;;;19.00;73.90;;;;;;4996156;28;20459;-79
2023/05/24 09:29:33;;;;;;;;;;;;;;;;;;;;;
2023/05/24 09:36:05;;;;;;;9.05;3.47;;;19.10;70.40;;;;;;5004973;28;20072;-79
2023/05/24 09:38:47;;;;;;;11.30;3.75;;;19.40;71.80;;;;;;4997112;28;20041;-79
2023/05/24 09:41:19;;;;;;;9.32;3.60;;;20.10;70.10;;;;;;5016089;28;20041;-78
2023/05/24 09:43:53;;;;;;;7.72;3.50;;;20.70;67.70;;;;;;4995546;28;20056;-79
2023/05/24 09:46:30;;;;;;;9.43;3.45;;;21.20;70.00;;;;;;5005768;28;20174;-80
2023/05/24 09:49:11;;;;;;;9.32;3.28;;;21.60;68.00;;;;;;5005635;28;20060;-78
2023/05/24 09:51:39;;;;;;;9.63;3.60;;;21.60;62.90;;;;;;4996394;28;20041;-79
2023/05/24 09:54:08;;;;;;;9.77;3.72;;;21.40;62.30;;;;;;5002550;28;20121;-78
2023/05/24 09:56:46;;;;;;;8.65;3.35;;;21.00;64.00;;;;;;5000150;28;20037;-80
2023/05/24 09:59:18;;;;;;;8.98;3.55;;;20.60;63.80;;;;;;5004801;28;20049;-79
2023/05/24 10:01:52;;;;;;;10.18;3.40;;;20.40;64.90;;;;;;5005178;28;20499;-79
2023/05/24 10:04:31;;;;;;;9.02;3.35;;;20.50;64.50;;;;;;4996935;28;20096;-79
2023/05/24 10:07:04;;;;;;;10.07;3.88;;;21.10;65.50;;;;;;5016915;28;20102;-78
2023/05/24 10:09:50;;;;;;;10.05;3.55;;;21.90;63.10;;;;;;5020209;28;20057;-80
2023/05/24 10:12:16;;;;;;;9.43;3.60;;;21.90;62.20;;;;;;4995993;28;20053;-80
2023/05/24 10:15:28;;;;;;;10.98;3.47;;;21.50;61.70;;;;;;5011875;28;20037;-79
2023/05/24 10:18:49;;;;;;;9.73;3.50;;;21.80;60.20;;;;;;5017030;28;20075;-79
2023/05/24 10:21:41;;;;;;;13.18;3.85;;;21.80;63.80;;;;;;5002042;28;20046;-78
2023/05/24 10:25:17;;;;;;;;;;;;;;;;;;;;;
2023/05/24 10:28:35;;;;;;;;;;;;;;;;;;;;;
2023/05/24 10:35:13;;;;;;;8.77;3.53;;;20.10;67.50;;;;;;5032510;28;20172;-78
2023/05/24 10:38:13;;;;;;;9.73;3.17;;;20.10;70.50;;;;;;4997456;28;20565;-80
2023/05/24 10:40:58;;;;;;;8.13;3.45;;;20.50;65.10;;;;;;4989882;28;20054;-80
2023/05/24 10:43:48;;;;;;;6.65;3.33;;;20.40;65.80;;;;;;5005943;28;20393;-80
2023/05/24 10:47:02;;;;;;;9.30;4.10;;;20.60;64.80;;;;;;5010452;28;20052;-80
2023/05/24 10:50:42;;;;;;;9.20;3.28;;;20.80;65.30;;;;;;5009906;28;20045;-80
2023/05/24 10:53:42;;;;;;;8.30;3.53;;;21.00;64.10;;;;;;4977661;28;20496;-77
2023/05/24 10:57:09;;;;;;;7.38;3.40;;;21.20;65.50;;;;;;5015763;28;20044;-77
2023/05/24 11:03:45;;;;;;;8.23;3.13;;;21.20;65.90;;;;;;4915651;28;20043;-79
2023/05/24 11:06:18;;;;;;;7.05;3.22;;;20.90;64.10;;;;;;4993099;28;20144;-77
2023/05/24 11:08:58;;;;;;;6.88;3.00;;;20.50;64.20;;;;;;4998340;28;20072;-77
2023/05/24 11:11:35;;;;;;;8.15;3.28;;;20.60;66.80;;;;;;4999023;28;20064;-77
2023/05/24 11:14:13;;;;;;;7.63;3.28;;;21.10;66.20;;;;;;4982884;28;20047;-77
2023/05/24 11:17:03;;;;;;;7.82;3.00;;;21.60;65.80;;;;;;5033144;28;20412;-77
2023/05/24 11:19:51;;;;;;;7.50;3.13;;;21.90;66.60;;;;;;4999264;28;20037;-77
2023/05/24 11:22:25;;;;;;;7.43;3.60;;;22.70;61.00;;;;;;5001392;28;20045;-77
2023/05/24 11:24:56;;;;;;;7.00;3.08;;;23.40;63.90;;;;;;4993044;28;20041;-76
2023/05/24 11:27:25;;;;;;;7.68;2.42;;;23.80;61.70;;;;;;4984606;28;20056;-77
2023/05/24 11:29:51;;;;;;;7.13;2.72;;;23.40;59.30;;;;;;5001506;28;20045;-77
2023/05/24 11:32:29;;;;;;;8.43;2.72;;;22.80;57.90;;;;;;5001701;28;20075;-77
2023/05/24 11:35:00;;;;;;;6.28;2.92;;;22.10;57.40;;;;;;5001862;28;20057;-77
2023/05/24 11:37:30;;;;;;;9.02;3.17;;;21.20;60.00;;;;;;5017054;28;20049;-77
2023/05/24 11:40:05;;;;;;;13.27;3.45;;;20.60;59.60;;;;;;5001847;28;20393;-77
2023/05/24 11:42:49;;;;;;;6.05;2.90;;;20.90;61.40;;;;;;5019190;28;20045;-77
2023/05/24 11:45:21;;;;;;;8.20;2.95;;;21.00;58.90;;;;;;5001312;28;20040;-77
2023/05/24 11:47:50;;;;;;;9.82;3.00;;;20.40;58.50;;;;;;5001420;28;20100;-77
2023/05/24 11:50:25;;;;;;;5.85;2.58;;;20.20;62.00;;;;;;5001778;28;20412;-77
2023/05/24 11:53:05;;;;;;;6.90;2.83;;;21.00;59.40;;;;;;4999597;28;20499;-77
2023/05/24 11:55:45;;;;;;;6.55;2.65;;;21.20;57.70;;;;;;5018768;28;20045;-77
2023/05/24 11:58:31;;;;;;;7.90;3.20;;;20.70;57.10;;;;;;5001683;28;20103;-77
2023/05/24 12:00:58;;;;;;;5.95;3.05;;;20.20;62.10;;;;;;5000235;28;20054;-77
2023/05/24 12:03:32;;;;;;;6.18;3.13;;;20.20;62.40;;;;;;5001325;28;20037;-77
2023/05/24 12:05:58;;;;;;;7.05;2.88;;;20.40;62.30;;;;;;5001837;28;20079;-77
2023/05/24 12:08:24;;;;;;;8.07;3.28;;;20.40;61.80;;;;;;5001000;28;20076;-77
2023/05/24 12:11:01;;;;;;;6.95;3.15;;;20.30;59.90;;;;;;5000805;28;20041;-79
2023/05/24 12:13:35;;;;;;;17.50;3.97;;;20.10;60.30;;;;;;5001069;28;20381;-77
2023/05/24 12:16:05;;;;;;;7.78;3.45;;;19.70;61.20;;;;;;5017131;28;20061;-77
2023/05/24 12:18:34;;;;;;;6.32;3.08;;;19.50;61.30;;;;;;5017099;28;20466;-77
2023/05/24 12:21:08;;;;;;;6.57;2.90;;;19.10;59.90;;;;;;5000570;28;20144;-77
2023/05/24 12:23:43;;;;;;;7.47;3.10;;;18.60;63.90;;;;;;5007803;28;20049;-77
2023/05/24 12:26:15;;;;;;;8.88;3.35;;;18.40;65.00;;;;;;5000906;28;20045;-77
2023/05/24 12:28:42;;;;;;;6.47;3.30;;;17.90;66.10;;;;;;5000458;28;20040;-77
2023/05/24 12:31:11;;;;;;;6.25;2.97;;;17.50;66.90;;;;;;5016384;28;20046;-77
2023/05/24 12:33:39;;;;;;;6.95;3.22;;;17.30;68.00;;;;;;4999457;28;20041;-77
2023/05/24 12:36:06;;;;;;;7.60;3.25;;;17.30;68.80;;;;;;4999455;28;20515;-77
2023/05/24 12:38:32;;;;;;;10.35;3.30;;;17.20;70.00;;;;;;5000485;28;20073;-77
2023/05/24 12:41:13;;;;;;;6.47;3.42;;;17.20;68.40;;;;;;5016297;28;20441;-77
2023/05/24 12:43:43;;;;;;;6.97;2.92;;;17.40;70.80;;;;;;5015390;28;20057;-76
2023/05/24 12:46:08;;;;;;;9.15;3.30;;;17.80;71.00;;;;;;5000040;28;20051;-77
2023/05/24 12:48:34;;;;;;;6.40;2.85;;;18.00;69.00;;;;;;4999808;28;20548;-77
2023/05/24 12:51:01;;;;;;;11.70;3.55;;;17.80;67.10;;;;;;5000311;28;20183;-77
2023/05/24 12:53:27;;;;;;;8.77;3.20;;;17.50;67.90;;;;;;5016598;28;20132;-77
2023/05/24 12:55:59;;;;;;;9.80;3.63;;;17.20;68.80;;;;;;5032983;28;20496;-77
2023/05/24 12:58:28;;;;;;;8.05;2.95;;;16.80;70.00;;;;;;5016296;28;20452;-78
2023/05/24 13:00:54;;;;;;;9.55;3.40;;;16.60;70.40;;;;;;5014813;28;20496;-77
2023/05/24 13:03:19;;;;;;;7.93;3.60;;;16.20;71.80;;;;;;4999809;28;20044;-77
2023/05/24 13:05:46;;;;;;;10.23;3.30;;;16.10;72.80;;;;;;5016076;28;20045;-77
2023/05/24 13:08:20;;;;;;;13.60;3.40;;;16.10;72.70;;;;;;5000101;28;20096;-77
2023/05/24 13:10:49;;;;;;;9.68;3.40;;;16.00;72.60;;;;;;4999441;28;20492;-77
2023/05/24 13:13:17;;;;;;;9.60;3.83;;;15.90;73.20;;;;;;4999524;28;20083;-77
2023/05/24 13:15:43;;;;;;;7.85;3.10;;;15.70;75.10;;;;;;4999270;28;20457;-77
2023/05/24 13:18:12;;;;;;;9.15;3.45;;;15.60;83.70;;;;;;4998966;28;20527;-77
2023/05/24 13:20:43;;;;;;;7.60;2.67;;;15.70;90.70;;;;;;4999345;28;20041;-77
2023/05/24 13:23:09;;;;;;;6.07;2.95;;;15.80;81.00;;;;;;5015492;28;20042;-77
2023/05/24 13:25:35;;;;;;;9.65;3.60;;;15.80;82.80;;;;;;5015532;28;20095;-77
2023/05/24 13:28:01;;;;;;;9.23;3.50;;;15.70;87.30;;;;;;5015379;28;20036;-77
2023/05/24 13:30:30;;;;;;;10.75;3.70;;;15.80;90.90;;;;;;5015231;28;20038;-77
2023/05/24 13:32:59;;;;;;;10.35;4.20;;;15.90;94.10;;;;;;5004163;28;20403;-77
2023/05/24 13:35:28;;;;;;;7.82;3.40;;;15.80;90.90;;;;;;5005882;28;20052;-77
2023/05/24 13:37:59;;;;;;;9.02;3.72;;;15.80;96.40;;;;;;5000482;28;20045;-77
2023/05/24 13:40:25;;;;;;;8.15;3.53;;;15.70;97.20;;;;;;5003582;28;20057;-77
2023/05/24 13:42:59;;;;;;;10.10;3.72;;;15.80;98.30;;;;;;4992753;28;20085;-76
2023/05/24 13:45:29;;;;;;;9.98;4.18;;;15.90;94.40;;;;;;5010861;28;20087;-77
2023/05/24 13:48:02;;;;;;;10.85;3.83;;;15.90;91.80;;;;;;5014447;28;20060;-77